createdAt,value
2018-07-17T00:00:49.876Z,12.50
2018-07-17T00:03:20.352Z,12.50
2018-07-17T00:05:51.521Z,13.13
2018-07-17T00:08:22.102Z,10.93
2018-07-17T00:10:52.781Z,8.60
2018-07-17T00:13:23.375Z,6.77
2018-07-17T00:15:53.926Z,5.17
2018-07-17T00:18:24.365Z,6.77
2018-07-17T00:20:55.023Z,9.80
2018-07-17T00:23:25.987Z,11.00
2018-07-17T00:25:57.081Z,8.93
2018-07-17T00:28:27.503Z,10.67
2018-07-17T00:30:58.011Z,6.67
2018-07-17T00:33:28.630Z,9.70
2018-07-17T00:35:59.141Z,6.73
2018-07-17T00:38:29.684Z,6.87
2018-07-17T00:41:00.345Z,6.90
2018-07-17T00:43:31.378Z,8.47
2018-07-17T00:46:02.516Z,6.87
2018-07-17T00:48:33.186Z,8.50
2018-07-17T00:51:03.737Z,5.37
2018-07-17T00:53:34.234Z,7.53
2018-07-17T00:56:04.870Z,7.73
2018-07-17T00:58:35.225Z,9.20
2018-07-17T01:01:04.809Z,6.93
2018-07-17T01:03:40.580Z,7.60
2018-07-17T01:06:16.409Z,8.23
2018-07-17T01:08:51.902Z,7.13
2018-07-17T01:11:27.597Z,6.63
2018-07-17T01:14:04.205Z,6.60
2018-07-17T01:16:34.749Z,8.37
2018-07-17T01:19:05.475Z,5.63
2018-07-17T01:21:36.174Z,13.13
2018-07-17T01:24:06.920Z,6.40
2018-07-17T01:26:37.444Z,6.50
2018-07-17T01:29:08.683Z,5.97
2018-07-17T01:31:39.734Z,10.87
2018-07-17T01:34:10.303Z,7.53
2018-07-17T01:36:40.750Z,7.97
2018-07-17T01:39:11.493Z,6.63
2018-07-17T01:41:42.091Z,5.17
2018-07-17T01:44:15.876Z,6.83
2018-07-17T01:46:48.146Z,6.90
2018-07-17T01:49:19.633Z,9.50
2018-07-17T01:51:50.088Z,7.07
2018-07-17T01:54:20.452Z,7.00
2018-07-17T01:56:50.528Z,11.07
2018-07-17T01:59:21.070Z,5.97
2018-07-17T02:01:51.062Z,10.47
2018-07-17T02:04:21.674Z,9.90
2018-07-17T02:06:53.000Z,11.47
2018-07-17T02:09:23.782Z,8.23
2018-07-17T02:11:53.865Z,7.10
2018-07-17T02:14:24.362Z,6.50
2018-07-17T02:16:54.931Z,8.30
2018-07-17T02:19:25.451Z,7.13
2018-07-17T02:21:55.898Z,10.57
2018-07-17T02:24:26.580Z,9.77
2018-07-17T02:26:58.006Z,10.60
2018-07-17T02:29:28.733Z,11.13
2018-07-17T02:31:59.313Z,8.93
2018-07-17T02:34:29.767Z,9.23
2018-07-17T02:37:00.340Z,6.30
2018-07-17T02:39:30.826Z,6.80
2018-07-17T02:42:01.364Z,9.43
2018-07-17T02:44:32.240Z,8.83
2018-07-17T02:47:03.549Z,7.33
2018-07-17T02:49:33.899Z,5.90
2018-07-17T02:52:04.535Z,9.87
2018-07-17T02:54:35.360Z,7.47
2018-07-17T02:57:05.884Z,8.43
2018-07-17T02:59:36.387Z,9.93
2018-07-17T03:02:06.986Z,9.97
2018-07-17T03:04:37.795Z,9.07
2018-07-17T03:07:08.893Z,10.73
2018-07-17T03:09:39.586Z,8.77
2018-07-17T03:12:10.258Z,10.33
2018-07-17T03:14:40.907Z,9.63
2018-07-17T03:17:11.396Z,10.63
2018-07-17T03:19:42.065Z,11.00
2018-07-17T03:22:12.500Z,8.20
2018-07-17T03:24:43.957Z,8.50
2018-07-17T03:27:14.802Z,9.97
2018-07-17T03:29:45.438Z,7.80
2018-07-17T03:32:15.540Z,8.53
2018-07-17T03:34:46.092Z,8.90
2018-07-17T03:37:16.715Z,11.63
2018-07-17T03:39:47.362Z,7.97
2018-07-17T03:42:17.903Z,11.13
2018-07-17T03:44:49.161Z,10.37
2018-07-17T03:47:20.028Z,11.00
2018-07-17T03:49:50.585Z,9.70
2018-07-17T03:52:21.327Z,9.87
2018-07-17T03:54:51.973Z,8.77
2018-07-17T03:57:22.793Z,8.63
2018-07-17T03:59:53.396Z,11.57
2018-07-17T04:02:24.031Z,7.50
2018-07-17T04:04:55.702Z,9.30
2018-07-17T04:07:25.806Z,10.23
2018-07-17T04:09:56.465Z,10.20
2018-07-17T04:12:27.157Z,13.33
2018-07-17T04:14:58.085Z,14.93
2018-07-17T04:17:28.120Z,15.57
2018-07-17T04:19:59.029Z,9.00
2018-07-17T04:22:30.890Z,10.50
2018-07-17T04:25:02.146Z,13.27
2018-07-17T04:27:32.786Z,8.67
2018-07-17T04:30:03.844Z,9.77
2018-07-17T04:32:33.760Z,9.03
2018-07-17T04:35:04.623Z,13.27
2018-07-17T04:37:35.722Z,11.90
2018-07-17T04:40:07.066Z,11.80
2018-07-17T04:42:38.015Z,13.13
2018-07-17T04:45:08.119Z,11.97
2018-07-17T04:47:38.786Z,11.83
2018-07-17T04:50:09.213Z,13.03
2018-07-17T04:52:39.936Z,10.87
2018-07-17T04:55:10.738Z,14.53
2018-07-17T04:57:41.420Z,8.07
2018-07-17T05:00:12.189Z,9.63
2018-07-17T05:02:43.522Z,10.60
2018-07-17T05:05:14.469Z,10.23
2018-07-17T05:07:45.078Z,9.23
2018-07-17T05:10:15.557Z,11.87
2018-07-17T05:12:46.210Z,10.77
2018-07-17T05:15:16.999Z,11.37
2018-07-17T05:17:47.067Z,12.43
2018-07-17T05:20:18.016Z,13.83
2018-07-17T05:22:49.579Z,13.93
2018-07-17T05:25:20.091Z,10.23
2018-07-17T05:27:51.064Z,11.70
2018-07-17T05:30:21.811Z,11.50
2018-07-17T05:32:52.415Z,8.93
2018-07-17T05:35:22.974Z,11.00
2018-07-17T05:37:53.644Z,13.00
2018-07-17T05:40:24.887Z,7.87
2018-07-17T05:42:55.838Z,10.90
2018-07-17T05:45:26.458Z,8.43
2018-07-17T05:47:57.130Z,9.43
2018-07-17T05:50:27.782Z,8.83
2018-07-17T05:52:58.445Z,8.87
2018-07-17T05:55:29.264Z,13.00
2018-07-17T05:57:59.162Z,9.83
2018-07-17T06:00:31.557Z,8.93
2018-07-17T06:03:02.402Z,5.73
2018-07-17T06:05:34.388Z,8.13
2018-07-17T06:08:04.903Z,8.20
2018-07-17T06:10:35.489Z,7.03
2018-07-17T06:13:06.032Z,6.47
2018-07-17T06:15:37.397Z,5.17
2018-07-17T06:18:08.300Z,5.83
2018-07-17T06:20:38.680Z,6.03
2018-07-17T06:23:10.769Z,7.83
2018-07-17T06:25:41.398Z,4.83
2018-07-17T06:28:12.488Z,4.67
2018-07-17T06:30:43.136Z,4.90
2018-07-17T06:33:13.922Z,7.37
2018-07-17T06:35:44.501Z,3.00
2018-07-17T06:38:15.784Z,6.27
2018-07-17T06:40:46.651Z,4.83
2018-07-17T06:43:17.239Z,5.87
2018-07-17T06:45:47.870Z,3.57
2018-07-17T06:48:19.233Z,3.00
2018-07-17T06:50:49.989Z,3.23
2018-07-17T06:53:20.839Z,3.40
2018-07-17T06:55:51.883Z,3.90
2018-07-17T06:58:23.804Z,7.17
2018-07-17T07:00:54.434Z,3.27
2018-07-17T07:03:25.216Z,4.73
2018-07-17T07:05:56.266Z,6.50
2018-07-17T07:08:27.216Z,4.00
2018-07-17T07:10:58.821Z,8.03
2018-07-17T07:13:29.142Z,3.00
2018-07-17T07:16:01.914Z,6.77
2018-07-17T07:18:33.384Z,4.83
2018-07-17T07:21:04.096Z,4.07
2018-07-17T07:23:35.655Z,5.40
2018-07-17T07:26:07.134Z,3.33
2018-07-17T07:28:37.942Z,5.40
2018-07-17T07:31:08.953Z,4.87
2018-07-17T07:33:40.559Z,3.40
2018-07-17T07:36:11.428Z,5.07
2018-07-17T07:38:42.273Z,4.60
2018-07-17T07:41:12.862Z,4.80
2018-07-17T07:43:44.454Z,5.23
2018-07-17T07:46:14.666Z,6.60
2018-07-17T07:48:45.792Z,10.43
2018-07-17T07:51:18.831Z,5.87
2018-07-17T07:53:56.202Z,6.87
2018-07-17T07:56:27.238Z,5.27
2018-07-17T07:58:59.030Z,6.90
2018-07-17T08:01:29.825Z,7.67
2018-07-17T08:04:00.720Z,4.83
2018-07-17T08:06:32.530Z,7.20
2018-07-17T08:09:03.897Z,5.73
2018-07-17T08:11:35.424Z,3.80
2018-07-17T08:14:06.028Z,5.53
2018-07-17T08:16:36.845Z,5.70
2018-07-17T08:19:07.909Z,5.53
2018-07-17T08:21:38.721Z,6.13
2018-07-17T08:24:09.838Z,3.97
2018-07-17T08:26:41.523Z,3.67
2018-07-17T08:29:12.526Z,4.73
2018-07-17T08:31:45.685Z,7.30
2018-07-17T08:34:16.662Z,5.10
2018-07-17T08:36:47.514Z,5.60
2018-07-17T08:39:18.437Z,6.73
2018-07-17T08:41:49.613Z,5.67
2018-07-17T08:44:21.324Z,8.13
2018-07-17T08:46:52.042Z,4.07
2018-07-17T08:49:23.374Z,5.63
2018-07-17T08:51:54.098Z,3.53
2018-07-17T08:54:24.790Z,6.33
2018-07-17T08:56:57.781Z,4.07
2018-07-17T08:59:28.791Z,6.37
2018-07-17T09:02:00.637Z,5.10
2018-07-17T09:04:31.146Z,4.90
2018-07-17T09:07:02.545Z,6.47
2018-07-17T09:09:33.644Z,4.90
2018-07-17T09:12:04.533Z,3.83
2018-07-17T09:14:35.082Z,6.60
2018-07-17T09:17:05.710Z,9.17
2018-07-17T09:19:37.455Z,4.80
2018-07-17T09:22:09.330Z,6.20
2018-07-17T09:24:40.941Z,4.77
2018-07-17T09:27:17.358Z,6.70
2018-07-17T09:30:14.372Z,5.37
2018-07-17T09:32:45.471Z,4.37
2018-07-17T09:35:15.924Z,6.47
2018-07-17T09:37:47.325Z,5.23
2018-07-17T09:40:28.125Z,4.87
2018-07-17T09:42:59.655Z,5.80
2018-07-17T09:45:30.628Z,4.60
2018-07-17T09:48:01.557Z,4.60
2018-07-17T09:50:34.522Z,7.93
2018-07-17T09:53:06.173Z,7.17
2018-07-17T09:55:38.280Z,9.50
2018-07-17T09:58:11.184Z,5.83
2018-07-17T10:00:47.174Z,4.77
2018-07-17T10:03:18.351Z,5.90
2018-07-17T10:05:49.428Z,10.47
2018-07-17T10:08:20.410Z,7.73
2018-07-17T10:10:53.455Z,6.57
2018-07-17T10:13:25.703Z,6.37
2018-07-17T10:15:56.583Z,6.37
2018-07-17T10:18:27.257Z,6.47
2018-07-17T10:20:58.467Z,6.73
2018-07-17T10:23:29.096Z,6.57
2018-07-17T10:26:00.142Z,6.40
2018-07-17T10:28:31.013Z,3.87
2018-07-17T10:31:02.680Z,6.20
2018-07-17T10:33:33.943Z,5.27
2018-07-17T10:36:05.377Z,7.37
2018-07-17T10:38:36.684Z,6.63
2018-07-17T10:41:08.454Z,6.70
2018-07-17T10:43:40.295Z,4.87
2018-07-17T10:46:10.897Z,6.03
2018-07-17T10:48:42.369Z,8.03
2018-07-17T10:51:13.361Z,4.90
2018-07-17T10:53:44.116Z,6.93
2018-07-17T10:56:15.463Z,4.20
2018-07-17T10:58:46.120Z,4.00
2018-07-17T11:01:17.154Z,5.17
2018-07-17T11:03:47.757Z,5.03
2018-07-17T11:06:20.456Z,5.53
2018-07-17T11:08:52.055Z,5.73
2018-07-17T11:11:22.677Z,4.00
2018-07-17T11:13:56.230Z,5.47
2018-07-17T11:16:26.914Z,6.10
2018-07-17T11:18:57.677Z,3.47
2018-07-17T11:21:28.354Z,4.27
2018-07-17T11:24:00.212Z,3.30
2018-07-17T11:26:32.173Z,3.37
2018-07-17T11:29:02.818Z,3.60
2018-07-17T11:31:33.878Z,4.43
2018-07-17T11:34:04.883Z,5.77
2018-07-17T11:36:35.427Z,4.70
2018-07-17T11:39:08.004Z,2.80
2018-07-17T11:41:39.312Z,4.53
2018-07-17T11:44:10.414Z,3.37
2018-07-17T11:46:41.890Z,3.93
2018-07-17T11:49:12.552Z,3.67
2018-07-17T11:51:43.257Z,3.43
2018-07-17T11:54:13.819Z,6.27
2018-07-17T11:56:45.215Z,3.75
2018-07-17T11:59:17.573Z,3.23
2018-07-17T12:01:50.067Z,3.43
2018-07-17T12:04:21.567Z,6.12
2018-07-17T12:06:52.692Z,7.73
2018-07-17T12:09:23.288Z,4.50
2018-07-17T12:11:57.143Z,3.50
2018-07-17T12:14:30.550Z,6.80
2018-07-17T12:17:05.240Z,2.80
2018-07-17T12:19:38.881Z,2.80
2018-07-17T12:22:12.945Z,4.23
2018-07-17T12:24:45.203Z,2.67
2018-07-17T12:27:25.176Z,2.75
2018-07-17T12:30:11.773Z,3.03
2018-07-17T12:32:45.889Z,4.43
2018-07-17T12:35:16.778Z,2.80
2018-07-17T12:37:49.812Z,2.87
2018-07-17T12:40:21.123Z,4.27
2018-07-17T12:42:54.077Z,4.03
2018-07-17T12:45:25.361Z,3.17
2018-07-17T12:47:58.768Z,5.73
2018-07-17T12:50:33.109Z,6.63
2018-07-17T12:53:04.583Z,4.07
2018-07-17T12:55:35.657Z,6.47
2018-07-17T12:58:07.173Z,3.63
2018-07-17T13:00:38.185Z,4.27
2018-07-17T13:03:10.426Z,4.13
2018-07-17T13:05:42.041Z,6.77
2018-07-17T13:08:19.613Z,9.10
2018-07-17T13:10:53.112Z,3.43
2018-07-17T13:13:27.094Z,6.07
2018-07-17T13:15:58.661Z,4.00
2018-07-17T13:18:29.555Z,4.50
2018-07-17T13:21:00.425Z,3.70
2018-07-17T13:23:33.560Z,3.80
2018-07-17T13:26:04.130Z,5.25
2018-07-17T13:28:34.880Z,4.05
2018-07-17T13:31:05.944Z,4.45
2018-07-17T13:33:36.784Z,3.73
2018-07-17T13:36:07.657Z,3.87
2018-07-17T13:38:39.638Z,5.53
2018-07-17T13:41:11.902Z,4.37
2018-07-17T13:43:43.837Z,4.95
2018-07-17T13:46:15.491Z,4.70
2018-07-17T13:48:46.125Z,4.80
2018-07-17T13:51:17.054Z,2.77
2018-07-17T13:53:48.145Z,4.80
2018-07-17T13:56:20.503Z,5.13
2018-07-17T13:58:52.905Z,6.13
2018-07-17T14:01:24.089Z,5.50
2018-07-17T14:03:55.645Z,4.20
2018-07-17T14:06:27.109Z,3.10
2018-07-17T14:08:58.811Z,3.83
2018-07-17T14:11:30.307Z,7.33
2018-07-17T14:14:01.372Z,5.43
2018-07-17T14:16:34.201Z,6.30
2018-07-17T14:19:05.977Z,4.67
2018-07-17T14:21:37.266Z,4.23
2018-07-17T14:24:08.450Z,5.43
2018-07-17T14:26:42.601Z,3.80
2018-07-17T14:29:15.144Z,3.23
2018-07-17T14:31:48.624Z,3.00
2018-07-17T14:34:19.539Z,4.60
2018-07-17T14:36:50.722Z,5.53
2018-07-17T14:39:24.274Z,3.00
2018-07-17T14:41:55.323Z,5.30
2018-07-17T14:44:26.099Z,2.37
2018-07-17T14:47:01.870Z,2.80
2018-07-17T14:49:38.975Z,4.43
2018-07-17T14:52:11.032Z,2.93
2018-07-17T14:54:43.168Z,2.97
2018-07-17T14:57:15.400Z,3.63
2018-07-17T14:59:50.102Z,5.00
2018-07-17T15:02:21.469Z,3.63
2018-07-17T15:04:52.094Z,2.37
2018-07-17T15:07:23.185Z,3.33
2018-07-17T15:09:54.538Z,2.93
2018-07-17T15:12:25.453Z,2.77
2018-07-17T15:14:56.520Z,2.77
2018-07-17T15:17:28.546Z,5.47
2018-07-17T15:19:59.846Z,2.93
2018-07-17T15:22:31.771Z,4.23
2018-07-17T15:25:02.452Z,2.33
2018-07-17T15:27:33.227Z,2.10
2018-07-17T15:30:04.277Z,3.70
2018-07-17T15:32:35.619Z,2.23
2018-07-17T15:35:07.589Z,2.77
2018-07-17T15:37:41.031Z,3.10
2018-07-17T15:40:12.237Z,2.83
2018-07-17T15:42:46.591Z,2.60
2018-07-17T15:45:19.200Z,2.50
2018-07-17T15:47:55.175Z,2.10
2018-07-17T15:50:26.140Z,3.47
2018-07-17T15:52:57.071Z,3.23
2018-07-17T15:55:27.869Z,2.30
2018-07-17T15:57:58.479Z,2.10
2018-07-17T16:00:29.549Z,2.30
2018-07-17T16:03:00.373Z,3.57
2018-07-17T16:05:30.965Z,2.70
2018-07-17T16:08:02.873Z,2.07
2018-07-17T16:10:34.069Z,4.63
2018-07-17T16:13:06.241Z,6.37
2018-07-17T16:15:37.308Z,2.87
2018-07-17T16:18:07.638Z,4.33
2018-07-17T16:20:38.793Z,2.73
2018-07-17T16:23:10.811Z,2.63
2018-07-17T16:25:44.134Z,2.03
2018-07-17T16:28:16.116Z,2.40
2018-07-17T16:30:46.864Z,2.33
2018-07-17T16:33:17.538Z,2.40
2018-07-17T16:35:48.340Z,2.33
2018-07-17T16:38:18.968Z,2.40
2018-07-17T16:40:51.890Z,3.10
2018-07-17T16:43:22.780Z,2.80
2018-07-17T16:45:53.680Z,4.83
2018-07-17T16:48:24.500Z,2.50
2018-07-17T16:50:56.541Z,4.37
2018-07-17T16:53:27.983Z,4.63
2018-07-17T16:55:58.720Z,1.93
2018-07-17T16:58:30.436Z,2.30
2018-07-17T17:01:02.069Z,3.73
2018-07-17T17:03:33.089Z,2.37
2018-07-17T17:06:04.487Z,2.30
2018-07-17T17:08:35.343Z,2.30
2018-07-17T17:11:06.635Z,2.70
2018-07-17T17:13:38.023Z,4.50
2018-07-17T17:16:10.477Z,3.00
2018-07-17T17:18:42.212Z,2.73
2018-07-17T17:21:12.434Z,4.37
2018-07-17T17:23:43.566Z,2.80
2018-07-17T17:26:16.174Z,5.23
2018-07-17T17:28:48.505Z,10.13
2018-07-17T17:31:21.322Z,7.43
2018-07-17T17:33:54.719Z,4.13
2018-07-17T17:36:28.638Z,4.90
2018-07-17T17:39:02.966Z,5.83
2018-07-17T17:41:34.014Z,3.33
2018-07-17T17:44:06.945Z,3.10
2018-07-17T17:46:47.528Z,2.57
2018-07-17T17:49:18.626Z,4.63
2018-07-17T17:51:52.066Z,3.10
2018-07-17T17:54:23.490Z,2.80
2018-07-17T17:56:55.572Z,6.40
2018-07-17T17:59:30.386Z,4.87
2018-07-17T18:02:05.209Z,4.40
2018-07-17T18:04:48.710Z,5.13
2018-07-17T18:07:29.702Z,7.13
2018-07-17T18:10:12.149Z,15.53
2018-07-17T18:12:44.637Z,9.33
2018-07-17T18:15:18.571Z,12.70
2018-07-17T18:17:51.294Z,24.43
2018-07-17T18:20:29.334Z,17.07
2018-07-17T18:23:01.076Z,19.93
2018-07-17T18:25:33.885Z,15.93
2018-07-17T18:28:09.463Z,14.80
2018-07-17T18:30:43.877Z,10.30
2018-07-17T18:33:15.846Z,7.77
2018-07-17T18:35:48.307Z,7.63
2018-07-17T18:38:20.515Z,6.63
2018-07-17T18:40:56.587Z,6.67
2018-07-17T18:43:29.608Z,9.20
2018-07-17T18:46:01.501Z,6.67
2018-07-17T18:48:35.523Z,8.27
2018-07-17T18:51:08.101Z,7.17
2018-07-17T18:53:41.308Z,7.80
2018-07-17T18:56:15.310Z,4.03
2018-07-17T18:58:47.396Z,6.90
2018-07-17T19:01:19.398Z,3.70
2018-07-17T19:03:51.332Z,4.47
2018-07-17T19:06:23.639Z,3.30
2018-07-17T19:08:55.781Z,5.70
2018-07-17T19:11:29.344Z,3.00
2018-07-17T19:14:01.478Z,3.57
2018-07-17T19:16:34.053Z,2.80
2018-07-17T19:19:07.587Z,3.63
2018-07-17T19:21:39.833Z,3.00
2018-07-17T19:24:15.402Z,4.33
2018-07-17T19:26:47.562Z,3.27
2018-07-17T19:29:19.886Z,3.40
2018-07-17T19:31:52.234Z,3.87
2018-07-17T19:34:24.318Z,3.87
2018-07-17T19:36:56.980Z,3.77
2018-07-17T19:39:30.466Z,4.10
2018-07-17T19:42:02.583Z,3.37
2018-07-17T19:44:35.125Z,5.93
2018-07-17T19:47:07.197Z,4.73
2018-07-17T19:49:39.331Z,3.80
2018-07-17T19:52:11.837Z,5.70
2018-07-17T19:54:45.655Z,4.00
2018-07-17T19:57:18.057Z,4.53
2018-07-17T19:59:51.056Z,8.60
2018-07-17T20:02:23.554Z,6.00
2018-07-17T20:04:55.946Z,5.80
2018-07-17T20:07:29.457Z,3.80
2018-07-17T20:10:03.260Z,3.53
2018-07-17T20:12:36.141Z,4.00
2018-07-17T20:15:08.546Z,7.70
2018-07-17T20:17:42.238Z,8.10
2018-07-17T20:20:16.380Z,5.87
2018-07-17T20:22:50.628Z,4.70
2018-07-17T20:25:22.595Z,7.10
2018-07-17T20:27:56.576Z,3.93
2018-07-17T20:30:29.575Z,3.70
2018-07-17T20:33:02.517Z,7.87
2018-07-17T20:35:35.732Z,7.13
2018-07-17T20:38:07.893Z,3.43
2018-07-17T20:40:39.713Z,3.30
2018-07-17T20:43:12.715Z,3.17
2018-07-17T20:45:49.264Z,4.00
2018-07-17T20:48:23.901Z,3.23
2018-07-17T20:50:58.600Z,3.63
2018-07-17T20:53:31.671Z,8.77
2018-07-17T20:56:04.355Z,3.20
2018-07-17T20:58:41.679Z,6.70
2018-07-17T21:01:16.746Z,4.47
2018-07-17T21:03:48.069Z,5.97
2018-07-17T21:06:19.578Z,7.07
2018-07-17T21:08:54.319Z,7.93
2018-07-17T21:11:26.765Z,4.57
2018-07-17T21:13:59.851Z,3.83
2018-07-17T21:16:31.870Z,7.17
2018-07-17T21:19:04.679Z,8.00
2018-07-17T21:21:38.282Z,4.63
2018-07-17T21:24:09.977Z,4.57
2018-07-17T21:26:41.423Z,3.70
2018-07-17T21:29:15.970Z,3.60
2018-07-17T21:31:47.854Z,3.23
2018-07-17T21:34:20.383Z,4.43
2018-07-17T21:36:52.822Z,3.90
2018-07-17T21:39:25.404Z,3.93
2018-07-17T21:42:00.251Z,5.23
2018-07-17T21:44:32.244Z,5.70
2018-07-17T21:47:06.354Z,5.37
2018-07-17T21:49:40.295Z,6.03
2018-07-17T21:52:13.285Z,6.53
2018-07-17T21:54:46.963Z,7.57
2018-07-17T21:57:20.425Z,5.70
2018-07-17T21:59:55.056Z,7.60
2018-07-17T22:02:28.794Z,6.53
2018-07-17T22:05:00.755Z,4.30
2018-07-17T22:07:32.064Z,4.93
2018-07-17T22:10:04.721Z,7.57
2018-07-17T22:12:36.691Z,11.83
2018-07-17T22:15:09.985Z,10.43
2018-07-17T22:17:41.565Z,7.30
2018-07-17T22:20:13.934Z,8.10
2018-07-17T22:22:51.607Z,5.87
2018-07-17T22:25:23.617Z,3.90
2018-07-17T22:27:56.210Z,7.20
2018-07-17T22:30:28.670Z,7.53
2018-07-17T22:33:02.052Z,8.90
2018-07-17T22:35:33.482Z,5.80
2018-07-17T22:38:06.501Z,5.73
2018-07-17T22:40:41.400Z,6.53
2018-07-17T22:43:14.343Z,5.90
2018-07-17T22:45:47.709Z,7.20
2018-07-17T22:48:20.077Z,6.37
2018-07-17T22:50:51.753Z,10.70
2018-07-17T22:53:24.477Z,8.40
2018-07-17T22:56:01.146Z,6.10
2018-07-17T22:58:35.234Z,4.60
2018-07-17T23:01:14.713Z,6.40
2018-07-17T23:03:50.378Z,7.80
2018-07-17T23:06:23.299Z,5.10
2018-07-17T23:08:58.479Z,6.07
2018-07-17T23:11:29.808Z,4.83
2018-07-17T23:14:03.363Z,5.50
2018-07-17T23:16:34.815Z,4.47
2018-07-17T23:19:09.382Z,4.33
2018-07-17T23:21:41.262Z,4.57
2018-07-17T23:24:12.226Z,6.90
2018-07-17T23:26:42.880Z,4.60
2018-07-17T23:29:14.341Z,4.43
2018-07-17T23:31:50.241Z,11.03
2018-07-17T23:34:23.547Z,8.80
2018-07-17T23:36:54.956Z,6.40
2018-07-17T23:39:26.342Z,5.07
2018-07-17T23:41:57.015Z,6.70
2018-07-17T23:44:29.190Z,4.47
2018-07-17T23:47:00.218Z,6.00
2018-07-17T23:49:38.317Z,7.37
2018-07-17T23:52:09.539Z,12.43
2018-07-17T23:54:40.587Z,8.03
2018-07-17T23:57:12.008Z,5.80
2018-07-17T23:59:43.539Z,8.13
